createdAt,value
2018-02-22T06:17:45.286Z,1017.11
2018-02-22T06:18:45.278Z,1017.10
2018-02-22T06:20:38.662Z,1017.06
2018-02-22T06:21:38.657Z,1017.14
2018-02-22T06:23:37.139Z,1017.12
2018-02-22T06:24:37.133Z,1017.11
2018-02-22T06:26:31.522Z,1017.15
2018-02-22T06:27:31.521Z,1017.15
2018-02-22T06:29:24.963Z,1017.09
2018-02-22T06:30:24.914Z,1017.14
2018-02-22T06:32:18.360Z,1017.13
2018-02-22T06:33:18.377Z,1017.16
2018-02-22T06:34:18.317Z,1017.17
2018-02-22T06:35:18.321Z,1017.17
2018-02-22T06:36:18.326Z,1017.16
2018-02-22T06:37:18.331Z,1017.20
2018-02-22T06:38:18.336Z,1017.19
2018-02-22T06:39:18.345Z,1017.19
2018-02-22T06:40:18.351Z,1017.21
2018-02-22T06:41:18.378Z,1017.21
2018-02-22T06:42:18.360Z,1017.21
2018-02-22T06:43:18.366Z,1017.22
2018-02-22T06:44:18.372Z,1017.28
2018-02-22T06:45:18.443Z,1017.25
2018-02-22T06:46:18.383Z,1017.26
2018-02-22T06:47:18.432Z,1017.26
2018-02-22T06:48:18.437Z,1017.29
2018-02-22T06:49:18.885Z,1017.29
2018-02-22T06:50:18.411Z,1017.27
2018-02-22T06:51:18.418Z,1017.28
2018-02-22T06:52:18.423Z,1017.30
2018-02-22T06:53:18.431Z,1017.30
2018-02-22T06:54:18.436Z,1017.30
2018-02-22T06:55:18.454Z,1017.30
2018-02-22T06:56:18.453Z,1017.26
2018-02-22T06:57:18.465Z,1017.29
2018-02-22T06:58:18.471Z,1017.30
2018-02-22T06:59:18.481Z,1017.31
2018-02-22T07:00:18.479Z,1017.29
2018-02-22T07:01:18.494Z,1017.33
2018-02-22T07:02:18.493Z,1017.29
2018-02-22T07:03:18.498Z,1017.35
2018-02-22T07:04:18.506Z,1017.36
2018-02-22T07:05:18.512Z,1017.35
2018-02-22T07:06:18.526Z,1017.32
2018-02-22T07:07:18.527Z,1017.34
2018-02-22T07:08:18.533Z,1017.34
2018-02-22T07:09:18.541Z,1017.37
2018-02-22T07:10:18.550Z,1017.36
2018-02-22T07:11:18.556Z,1017.35
2018-02-22T07:12:18.560Z,1017.34
2018-02-22T07:13:18.570Z,1017.34
2018-02-22T07:14:18.580Z,1017.32
2018-02-22T07:15:18.583Z,1017.34
2018-02-22T07:16:18.587Z,1017.34
2018-02-22T07:17:18.596Z,1017.32
2018-02-22T07:18:18.617Z,1017.36
2018-02-22T07:19:18.611Z,1017.34
2018-02-22T07:20:18.615Z,1017.37
2018-02-22T07:21:18.623Z,1017.38
2018-02-22T07:22:18.630Z,1017.38
2018-02-22T07:23:18.637Z,1017.41
2018-02-22T07:24:18.638Z,1017.40
2018-02-22T07:25:18.646Z,1017.41
2018-02-22T07:26:18.659Z,1017.39
2018-02-22T07:27:18.658Z,1017.42
2018-02-22T07:28:18.664Z,1017.42
2018-02-22T07:29:18.672Z,1017.41
2018-02-22T07:30:18.677Z,1017.45
2018-02-22T07:31:18.687Z,1017.43
2018-02-22T07:32:18.697Z,1017.45
2018-02-22T07:33:18.698Z,1017.46
2018-02-22T07:34:18.705Z,1017.44
2018-02-22T07:35:18.711Z,1017.48
2018-02-22T07:36:18.716Z,1017.43
2018-02-22T07:37:18.724Z,1017.46
2018-02-22T07:38:18.730Z,1017.49
2018-02-22T07:39:18.737Z,1017.47
2018-02-22T07:40:18.743Z,1017.50
2018-02-22T07:41:18.752Z,1017.48
2018-02-22T07:42:18.756Z,1017.48
2018-02-22T07:43:18.764Z,1017.50
2018-02-22T08:31:16.683Z,1017.63
2018-02-22T08:32:16.615Z,1017.61
2018-02-22T08:34:10.026Z,1017.56
2018-02-22T16:50:37.988Z,1015.71
2018-02-22T18:54:39.465Z,1016.13
2018-02-22T18:55:39.414Z,1016.12
2018-02-22T19:08:54.660Z,1016.11
2018-02-22T19:09:54.647Z,1016.14
2018-02-22T19:11:48.997Z,1016.10
2018-02-22T19:12:48.999Z,1016.15
2018-02-22T19:14:42.425Z,1016.12
2018-02-22T19:15:42.377Z,1016.15
2018-02-22T19:17:35.895Z,1016.11
2018-02-22T19:21:40.987Z,1016.11
2018-02-22T19:22:40.988Z,1016.13
2018-02-22T19:33:47.505Z,1016.14
